Astroworld, Texas
Current Conditions -  °F | °C
As of 6:15 PM on Friday 31 Oct 2014 (Local Time) from KMCJ Reporting Station
Clear Clear  
Wind Chill: 72°   Ceiling: Unl
Heat Index: 72°   Visibility: 10mi
Dew Point: 39°   Wind: 17mph
Humidity: 31%   Direction: 320°NW
Pressure: 30.14"   Gusts: 22mph
Location:  29.6867°N, 95.4345°W
Report Text: KMCJ 312315Z AUTO 32015G19KT 10SM CLR 22/04 A3014 RMK AO1
Loading
Personal Weather Stations






























Interactive Weather Map
Tropical Storm Tracking
New forecast layout! Learn more

10-Day Weather Forecast

Advertisements
Track Severe Weather on mobile